sensor_id;sensor_type;location;lat;lon;timestamp;P1;durP1;ratioP1;P2;durP2;ratioP2
42886;SDS011;29032;56.028;92.904;2022-12-07T00:02:16;17.40;;;7.13;;
42886;SDS011;29032;56.028;92.904;2022-12-07T00:07:18;17.40;;;6.97;;
42886;SDS011;29032;56.028;92.904;2022-12-07T00:12:21;15.63;;;6.90;;
42886;SDS011;29032;56.028;92.904;2022-12-07T00:17:24;17.47;;;6.87;;
42886;SDS011;29032;56.028;92.904;2022-12-07T00:22:26;15.50;;;7.20;;
42886;SDS011;29032;56.028;92.904;2022-12-07T00:27:28;23.80;;;9.10;;
42886;SDS011;29032;56.028;92.904;2022-12-07T00:32:32;26.37;;;10.03;;
42886;SDS011;29032;56.028;92.904;2022-12-07T00:37:34;22.50;;;8.77;;
42886;SDS011;29032;56.028;92.904;2022-12-07T00:42:36;18.83;;;8.30;;
42886;SDS011;29032;56.028;92.904;2022-12-07T00:47:40;25.17;;;9.97;;
42886;SDS011;29032;56.028;92.904;2022-12-07T00:52:42;21.47;;;8.87;;
42886;SDS011;29032;56.028;92.904;2022-12-07T00:57:44;19.90;;;8.43;;
42886;SDS011;29032;56.028;92.904;2022-12-07T01:02:48;18.73;;;8.13;;
42886;SDS011;29032;56.028;92.904;2022-12-07T01:07:50;23.33;;;8.77;;
42886;SDS011;29032;56.028;92.904;2022-12-07T01:12:52;18.27;;;7.80;;
42886;SDS011;29032;56.028;92.904;2022-12-07T01:17:56;20.43;;;7.83;;
42886;SDS011;29032;56.028;92.904;2022-12-07T01:22:58;19.27;;;7.87;;
42886;SDS011;29032;56.028;92.904;2022-12-07T01:28:00;16.67;;;8.03;;
42886;SDS011;29032;56.028;92.904;2022-12-07T01:33:04;19.63;;;8.33;;
42886;SDS011;29032;56.028;92.904;2022-12-07T01:38:06;22.10;;;7.50;;
42886;SDS011;29032;56.028;92.904;2022-12-07T01:43:09;22.53;;;7.03;;
42886;SDS011;29032;56.028;92.904;2022-12-07T01:48:19;19.37;;;7.33;;
42886;SDS011;29032;56.028;92.904;2022-12-07T01:53:26;17.20;;;7.40;;
42886;SDS011;29032;56.028;92.904;2022-12-07T01:58:31;16.00;;;7.23;;
42886;SDS011;29032;56.028;92.904;2022-12-07T02:03:36;14.17;;;6.43;;
42886;SDS011;29032;56.028;92.904;2022-12-07T02:08:41;17.33;;;7.47;;
42886;SDS011;29032;56.028;92.904;2022-12-07T02:13:44;20.80;;;7.43;;
42886;SDS011;29032;56.028;92.904;2022-12-07T02:18:58;16.17;;;6.87;;
42886;SDS011;29032;56.028;92.904;2022-12-07T02:24:31;16.87;;;7.37;;
42886;SDS011;29032;56.028;92.904;2022-12-07T02:29:49;17.02;;;7.63;;
42886;SDS011;29032;56.028;92.904;2022-12-07T02:35:01;14.73;;;7.03;;
42886;SDS011;29032;56.028;92.904;2022-12-07T02:40:08;16.27;;;8.07;;
42886;SDS011;29032;56.028;92.904;2022-12-07T02:45:15;17.02;;;8.43;;
42886;SDS011;29032;56.028;92.904;2022-12-07T02:50:21;20.33;;;8.13;;
42886;SDS011;29032;56.028;92.904;2022-12-07T02:55:25;23.80;;;7.33;;
42886;SDS011;29032;56.028;92.904;2022-12-07T03:00:31;21.17;;;7.85;;
42886;SDS011;29032;56.028;92.904;2022-12-07T03:05:48;17.17;;;7.30;;
42886;SDS011;29032;56.028;92.904;2022-12-07T03:11:00;22.50;;;9.20;;
42886;SDS011;29032;56.028;92.904;2022-12-07T03:16:08;18.10;;;7.30;;
42886;SDS011;29032;56.028;92.904;2022-12-07T03:21:16;15.60;;;6.87;;
42886;SDS011;29032;56.028;92.904;2022-12-07T03:26:22;14.50;;;6.40;;
42886;SDS011;29032;56.028;92.904;2022-12-07T03:31:29;21.10;;;7.50;;
42886;SDS011;29032;56.028;92.904;2022-12-07T03:36:35;14.20;;;5.93;;
42886;SDS011;29032;56.028;92.904;2022-12-07T03:41:42;15.27;;;6.70;;
42886;SDS011;29032;56.028;92.904;2022-12-07T03:46:49;20.87;;;6.90;;
42886;SDS011;29032;56.028;92.904;2022-12-07T03:52:00;16.37;;;6.57;;
42886;SDS011;29032;56.028;92.904;2022-12-07T03:57:11;21.67;;;7.87;;
42886;SDS011;29032;56.028;92.904;2022-12-07T04:02:16;17.83;;;7.53;;
42886;SDS011;29032;56.028;92.904;2022-12-07T04:07:18;19.23;;;7.47;;
42886;SDS011;29032;56.028;92.904;2022-12-07T04:12:21;17.83;;;8.10;;
42886;SDS011;29032;56.028;92.904;2022-12-07T04:17:24;16.60;;;7.67;;
42886;SDS011;29032;56.028;92.904;2022-12-07T04:22:27;16.93;;;6.83;;
42886;SDS011;29032;56.028;92.904;2022-12-07T04:27:29;12.53;;;5.73;;
42886;SDS011;29032;56.028;92.904;2022-12-07T04:32:33;14.40;;;7.27;;
42886;SDS011;29032;56.028;92.904;2022-12-07T04:37:35;13.33;;;6.13;;
42886;SDS011;29032;56.028;92.904;2022-12-07T04:42:38;16.70;;;7.33;;
42886;SDS011;29032;56.028;92.904;2022-12-07T04:47:41;18.73;;;7.93;;
42886;SDS011;29032;56.028;92.904;2022-12-07T04:52:43;22.50;;;7.63;;
42886;SDS011;29032;56.028;92.904;2022-12-07T04:57:45;17.13;;;6.73;;
42886;SDS011;29032;56.028;92.904;2022-12-07T05:02:49;19.07;;;6.47;;
42886;SDS011;29032;56.028;92.904;2022-12-07T05:07:51;13.57;;;5.70;;
42886;SDS011;29032;56.028;92.904;2022-12-07T05:12:53;17.43;;;5.90;;
42886;SDS011;29032;56.028;92.904;2022-12-07T05:17:57;15.43;;;6.20;;
42886;SDS011;29032;56.028;92.904;2022-12-07T05:22:59;13.37;;;6.43;;
42886;SDS011;29032;56.028;92.904;2022-12-07T05:28:01;15.13;;;6.53;;
42886;SDS011;29032;56.028;92.904;2022-12-07T05:33:05;13.00;;;6.43;;
42886;SDS011;29032;56.028;92.904;2022-12-07T05:38:07;15.30;;;6.80;;
42886;SDS011;29032;56.028;92.904;2022-12-07T05:43:10;11.93;;;5.00;;
42886;SDS011;29032;56.028;92.904;2022-12-07T05:48:13;11.87;;;5.80;;
42886;SDS011;29032;56.028;92.904;2022-12-07T05:53:16;15.67;;;6.30;;
42886;SDS011;29032;56.028;92.904;2022-12-07T05:58:18;15.07;;;6.17;;
42886;SDS011;29032;56.028;92.904;2022-12-07T06:03:21;8.30;;;4.23;;
42886;SDS011;29032;56.028;92.904;2022-12-07T06:08:24;13.77;;;6.13;;
42886;SDS011;29032;56.028;92.904;2022-12-07T06:13:26;14.63;;;5.70;;
42886;SDS011;29032;56.028;92.904;2022-12-07T06:18:29;11.23;;;5.80;;
42886;SDS011;29032;56.028;92.904;2022-12-07T06:23:40;15.97;;;6.73;;
42886;SDS011;29032;56.028;92.904;2022-12-07T06:28:42;11.53;;;5.23;;
42886;SDS011;29032;56.028;92.904;2022-12-07T06:33:46;11.60;;;5.57;;
42886;SDS011;29032;56.028;92.904;2022-12-07T06:38:48;20.37;;;7.37;;
42886;SDS011;29032;56.028;92.904;2022-12-07T06:43:50;14.53;;;5.70;;
42886;SDS011;29032;56.028;92.904;2022-12-07T06:48:54;10.97;;;5.37;;
42886;SDS011;29032;56.028;92.904;2022-12-07T06:53:56;10.20;;;5.40;;
42886;SDS011;29032;56.028;92.904;2022-12-07T06:58:58;12.17;;;4.97;;
42886;SDS011;29032;56.028;92.904;2022-12-07T07:04:02;12.23;;;5.33;;
42886;SDS011;29032;56.028;92.904;2022-12-07T07:09:04;12.63;;;6.40;;
42886;SDS011;29032;56.028;92.904;2022-12-07T07:14:10;16.17;;;6.93;;
42886;SDS011;29032;56.028;92.904;2022-12-07T07:19:13;13.53;;;5.63;;
42886;SDS011;29032;56.028;92.904;2022-12-07T07:24:16;11.10;;;5.77;;
42886;SDS011;29032;56.028;92.904;2022-12-07T07:29:19;18.00;;;7.43;;
42886;SDS011;29032;56.028;92.904;2022-12-07T07:34:27;15.37;;;6.33;;
42886;SDS011;29032;56.028;92.904;2022-12-07T07:39:29;13.47;;;6.77;;
42886;SDS011;29032;56.028;92.904;2022-12-07T07:44:31;12.80;;;6.83;;
42886;SDS011;29032;56.028;92.904;2022-12-07T07:49:35;14.20;;;6.70;;
42886;SDS011;29032;56.028;92.904;2022-12-07T07:54:37;11.90;;;5.67;;
42886;SDS011;29032;56.028;92.904;2022-12-07T07:59:39;10.87;;;5.17;;
42886;SDS011;29032;56.028;92.904;2022-12-07T08:04:43;14.57;;;6.30;;
42886;SDS011;29032;56.028;92.904;2022-12-07T08:09:46;15.03;;;6.47;;
42886;SDS011;29032;56.028;92.904;2022-12-07T08:14:48;18.53;;;7.37;;
42886;SDS011;29032;56.028;92.904;2022-12-07T08:19:52;18.13;;;6.40;;
42886;SDS011;29032;56.028;92.904;2022-12-07T08:24:55;15.00;;;6.47;;
42886;SDS011;29032;56.028;92.904;2022-12-07T08:29:57;15.47;;;6.27;;
42886;SDS011;29032;56.028;92.904;2022-12-07T08:35:00;21.87;;;7.57;;
42886;SDS011;29032;56.028;92.904;2022-12-07T08:40:03;13.33;;;5.93;;
42886;SDS011;29032;56.028;92.904;2022-12-07T08:45:08;11.00;;;5.67;;
42886;SDS011;29032;56.028;92.904;2022-12-07T08:50:13;10.70;;;5.37;;
42886;SDS011;29032;56.028;92.904;2022-12-07T08:55:16;10.33;;;5.73;;
42886;SDS011;29032;56.028;92.904;2022-12-07T09:00:18;11.27;;;5.30;;
42886;SDS011;29032;56.028;92.904;2022-12-07T09:05:22;12.07;;;5.80;;
42886;SDS011;29032;56.028;92.904;2022-12-07T09:10:25;11.93;;;5.70;;
42886;SDS011;29032;56.028;92.904;2022-12-07T09:15:27;17.23;;;7.23;;
42886;SDS011;29032;56.028;92.904;2022-12-07T09:20:31;12.57;;;6.17;;
42886;SDS011;29032;56.028;92.904;2022-12-07T09:25:33;15.43;;;6.30;;
42886;SDS011;29032;56.028;92.904;2022-12-07T09:30:35;15.27;;;6.37;;
42886;SDS011;29032;56.028;92.904;2022-12-07T09:35:39;13.87;;;6.57;;
42886;SDS011;29032;56.028;92.904;2022-12-07T09:40:45;17.67;;;7.37;;
42886;SDS011;29032;56.028;92.904;2022-12-07T09:45:49;15.73;;;7.90;;
42886;SDS011;29032;56.028;92.904;2022-12-07T09:50:55;27.87;;;9.20;;
42886;SDS011;29032;56.028;92.904;2022-12-07T09:55:59;15.03;;;6.57;;
42886;SDS011;29032;56.028;92.904;2022-12-07T10:01:09;17.27;;;6.57;;
42886;SDS011;29032;56.028;92.904;2022-12-07T10:06:15;14.70;;;6.90;;
42886;SDS011;29032;56.028;92.904;2022-12-07T10:11:18;15.10;;;6.67;;
42886;SDS011;29032;56.028;92.904;2022-12-07T10:16:29;18.43;;;7.80;;
42886;SDS011;29032;56.028;92.904;2022-12-07T10:21:40;17.13;;;6.97;;
42886;SDS011;29032;56.028;92.904;2022-12-07T10:27:00;19.43;;;7.30;;
42886;SDS011;29032;56.028;92.904;2022-12-07T10:32:04;17.77;;;7.80;;
42886;SDS011;29032;56.028;92.904;2022-12-07T10:37:13;16.70;;;6.73;;
42886;SDS011;29032;56.028;92.904;2022-12-07T10:42:18;17.07;;;6.80;;
42886;SDS011;29032;56.028;92.904;2022-12-07T10:47:29;12.50;;;6.30;;
42886;SDS011;29032;56.028;92.904;2022-12-07T10:52:45;14.70;;;6.70;;
42886;SDS011;29032;56.028;92.904;2022-12-07T10:58:04;20.77;;;8.00;;
42886;SDS011;29032;56.028;92.904;2022-12-07T11:03:25;17.67;;;7.07;;
42886;SDS011;29032;56.028;92.904;2022-12-07T11:08:47;17.37;;;6.70;;
42886;SDS011;29032;56.028;92.904;2022-12-07T11:14:03;17.43;;;7.23;;
42886;SDS011;29032;56.028;92.904;2022-12-07T11:24:49;15.43;;;7.07;;
42886;SDS011;29032;56.028;92.904;2022-12-07T11:30:00;19.40;;;6.73;;
42886;SDS011;29032;56.028;92.904;2022-12-07T11:35:15;16.67;;;6.60;;
42886;SDS011;29032;56.028;92.904;2022-12-07T11:40:28;13.27;;;6.00;;
42886;SDS011;29032;56.028;92.904;2022-12-07T11:45:33;19.33;;;7.72;;
42886;SDS011;29032;56.028;92.904;2022-12-07T11:50:37;28.27;;;8.80;;
42886;SDS011;29032;56.028;92.904;2022-12-07T11:55:45;25.15;;;8.00;;
42886;SDS011;29032;56.028;92.904;2022-12-07T12:00:51;16.77;;;7.03;;
42886;SDS011;29032;56.028;92.904;2022-12-07T12:06:04;15.07;;;6.93;;
42886;SDS011;29032;56.028;92.904;2022-12-07T12:11:10;23.10;;;7.90;;
42886;SDS011;29032;56.028;92.904;2022-12-07T12:16:38;24.50;;;9.27;;
42886;SDS011;29032;56.028;92.904;2022-12-07T12:21:58;17.90;;;6.57;;
42886;SDS011;29032;56.028;92.904;2022-12-07T12:27:09;24.23;;;8.80;;
42886;SDS011;29032;56.028;92.904;2022-12-07T12:32:21;17.47;;;6.67;;
42886;SDS011;29032;56.028;92.904;2022-12-07T12:37:44;20.60;;;7.00;;
42886;SDS011;29032;56.028;92.904;2022-12-07T12:42:50;18.03;;;6.87;;
42886;SDS011;29032;56.028;92.904;2022-12-07T12:47:54;23.47;;;7.60;;
42886;SDS011;29032;56.028;92.904;2022-12-07T12:53:05;15.80;;;7.07;;
42886;SDS011;29032;56.028;92.904;2022-12-07T12:58:32;16.53;;;6.90;;
42886;SDS011;29032;56.028;92.904;2022-12-07T13:03:43;11.60;;;4.87;;
42886;SDS011;29032;56.028;92.904;2022-12-07T13:08:54;15.43;;;5.97;;
42886;SDS011;29032;56.028;92.904;2022-12-07T13:19:55;14.10;;;5.80;;
42886;SDS011;29032;56.028;92.904;2022-12-07T13:24:57;15.63;;;7.07;;
42886;SDS011;29032;56.028;92.904;2022-12-07T13:30:01;17.33;;;5.83;;
42886;SDS011;29032;56.028;92.904;2022-12-07T13:40:32;14.23;;;6.23;;
42886;SDS011;29032;56.028;92.904;2022-12-07T13:45:34;17.83;;;6.63;;
42886;SDS011;29032;56.028;92.904;2022-12-07T13:50:38;18.53;;;6.83;;
42886;SDS011;29032;56.028;92.904;2022-12-07T13:55:44;16.90;;;6.07;;
42886;SDS011;29032;56.028;92.904;2022-12-07T14:00:46;13.20;;;5.68;;
42886;SDS011;29032;56.028;92.904;2022-12-07T14:05:52;13.00;;;6.13;;
42886;SDS011;29032;56.028;92.904;2022-12-07T14:11:06;12.80;;;6.15;;
42886;SDS011;29032;56.028;92.904;2022-12-07T14:16:23;13.67;;;6.87;;
42886;SDS011;29032;56.028;92.904;2022-12-07T14:21:29;13.73;;;6.70;;
42886;SDS011;29032;56.028;92.904;2022-12-07T14:26:34;16.92;;;7.45;;
42886;SDS011;29032;56.028;92.904;2022-12-07T14:31:37;18.73;;;7.57;;
42886;SDS011;29032;56.028;92.904;2022-12-07T14:36:40;18.30;;;6.73;;
42886;SDS011;29032;56.028;92.904;2022-12-07T14:41:42;13.53;;;6.70;;
42886;SDS011;29032;56.028;92.904;2022-12-07T14:46:45;16.97;;;7.33;;
42886;SDS011;29032;56.028;92.904;2022-12-07T14:51:49;16.00;;;6.73;;
42886;SDS011;29032;56.028;92.904;2022-12-07T14:56:51;16.03;;;7.37;;
42886;SDS011;29032;56.028;92.904;2022-12-07T15:01:53;9.57;;;4.90;;
42886;SDS011;29032;56.028;92.904;2022-12-07T15:06:57;16.13;;;6.80;;
42886;SDS011;29032;56.028;92.904;2022-12-07T15:12:01;15.33;;;6.10;;
42886;SDS011;29032;56.028;92.904;2022-12-07T15:17:03;17.83;;;7.13;;
42886;SDS011;29032;56.028;92.904;2022-12-07T15:22:07;15.47;;;7.07;;
42886;SDS011;29032;56.028;92.904;2022-12-07T15:27:09;17.60;;;7.37;;
42886;SDS011;29032;56.028;92.904;2022-12-07T15:32:11;15.83;;;7.40;;
42886;SDS011;29032;56.028;92.904;2022-12-07T15:37:22;17.40;;;6.47;;
42886;SDS011;29032;56.028;92.904;2022-12-07T15:42:24;13.83;;;6.37;;
42886;SDS011;29032;56.028;92.904;2022-12-07T15:47:27;19.03;;;6.87;;
42886;SDS011;29032;56.028;92.904;2022-12-07T15:52:30;15.83;;;5.87;;
42886;SDS011;29032;56.028;92.904;2022-12-07T15:57:34;14.53;;;6.40;;
42886;SDS011;29032;56.028;92.904;2022-12-07T16:02:38;15.60;;;7.03;;
42886;SDS011;29032;56.028;92.904;2022-12-07T16:07:42;14.13;;;6.10;;
42886;SDS011;29032;56.028;92.904;2022-12-07T16:12:44;13.27;;;4.53;;
42886;SDS011;29032;56.028;92.904;2022-12-07T16:17:46;14.83;;;6.27;;
42886;SDS011;29032;56.028;92.904;2022-12-07T16:22:52;20.17;;;6.67;;
42886;SDS011;29032;56.028;92.904;2022-12-07T16:27:54;13.77;;;5.63;;
42886;SDS011;29032;56.028;92.904;2022-12-07T16:32:56;15.80;;;6.90;;
42886;SDS011;29032;56.028;92.904;2022-12-07T16:38:00;16.77;;;6.97;;
42886;SDS011;29032;56.028;92.904;2022-12-07T16:43:02;13.03;;;5.70;;
42886;SDS011;29032;56.028;92.904;2022-12-07T16:48:04;13.10;;;6.50;;
42886;SDS011;29032;56.028;92.904;2022-12-07T16:53:08;17.97;;;7.83;;
42886;SDS011;29032;56.028;92.904;2022-12-07T16:58:11;16.00;;;6.17;;
42886;SDS011;29032;56.028;92.904;2022-12-07T17:03:14;15.00;;;5.93;;
42886;SDS011;29032;56.028;92.904;2022-12-07T17:08:18;14.97;;;6.30;;
42886;SDS011;29032;56.028;92.904;2022-12-07T17:13:20;16.23;;;5.93;;
42886;SDS011;29032;56.028;92.904;2022-12-07T17:18:22;16.63;;;6.07;;
42886;SDS011;29032;56.028;92.904;2022-12-07T17:23:26;12.17;;;5.60;;
42886;SDS011;29032;56.028;92.904;2022-12-07T17:28:28;14.47;;;5.63;;
42886;SDS011;29032;56.028;92.904;2022-12-07T17:33:31;12.87;;;4.70;;
42886;SDS011;29032;56.028;92.904;2022-12-07T17:38:34;12.50;;;5.17;;
42886;SDS011;29032;56.028;92.904;2022-12-07T17:43:37;10.97;;;5.60;;
42886;SDS011;29032;56.028;92.904;2022-12-07T17:48:40;10.97;;;5.47;;
42886;SDS011;29032;56.028;92.904;2022-12-07T17:53:43;15.90;;;5.80;;
42886;SDS011;29032;56.028;92.904;2022-12-07T17:58:48;14.30;;;6.65;;
42886;SDS011;29032;56.028;92.904;2022-12-07T18:03:51;15.93;;;5.43;;
42886;SDS011;29032;56.028;92.904;2022-12-07T18:08:55;11.13;;;5.13;;
42886;SDS011;29032;56.028;92.904;2022-12-07T18:13:57;10.77;;;5.07;;
42886;SDS011;29032;56.028;92.904;2022-12-07T18:19:00;10.00;;;5.03;;
42886;SDS011;29032;56.028;92.904;2022-12-07T18:24:05;13.03;;;5.67;;
42886;SDS011;29032;56.028;92.904;2022-12-07T18:29:12;14.98;;;5.20;;
42886;SDS011;29032;56.028;92.904;2022-12-07T18:34:16;11.53;;;5.30;;
42886;SDS011;29032;56.028;92.904;2022-12-07T18:39:25;9.00;;;4.57;;
42886;SDS011;29032;56.028;92.904;2022-12-07T18:44:27;12.90;;;5.10;;
42886;SDS011;29032;56.028;92.904;2022-12-07T18:49:30;8.43;;;4.43;;
42886;SDS011;29032;56.028;92.904;2022-12-07T18:54:33;12.03;;;5.13;;
42886;SDS011;29032;56.028;92.904;2022-12-07T18:59:36;11.47;;;4.97;;
42886;SDS011;29032;56.028;92.904;2022-12-07T19:04:38;11.83;;;4.37;;
42886;SDS011;29032;56.028;92.904;2022-12-07T19:09:41;8.23;;;4.40;;
42886;SDS011;29032;56.028;92.904;2022-12-07T19:14:43;9.37;;;4.57;;
42886;SDS011;29032;56.028;92.904;2022-12-07T19:19:46;12.43;;;5.17;;
42886;SDS011;29032;56.028;92.904;2022-12-07T19:24:50;10.50;;;4.67;;
42886;SDS011;29032;56.028;92.904;2022-12-07T19:29:53;14.17;;;5.37;;
42886;SDS011;29032;56.028;92.904;2022-12-07T19:34:56;9.90;;;5.03;;
42886;SDS011;29032;56.028;92.904;2022-12-07T19:39:59;10.10;;;5.00;;
42886;SDS011;29032;56.028;92.904;2022-12-07T19:45:01;11.57;;;4.43;;
42886;SDS011;29032;56.028;92.904;2022-12-07T19:50:04;8.47;;;4.30;;
42886;SDS011;29032;56.028;92.904;2022-12-07T19:55:09;10.97;;;5.23;;
42886;SDS011;29032;56.028;92.904;2022-12-07T20:00:11;12.37;;;5.50;;
42886;SDS011;29032;56.028;92.904;2022-12-07T20:05:15;12.47;;;5.27;;
42886;SDS011;29032;56.028;92.904;2022-12-07T20:10:18;10.33;;;5.07;;
42886;SDS011;29032;56.028;92.904;2022-12-07T20:15:21;13.13;;;5.83;;
42886;SDS011;29032;56.028;92.904;2022-12-07T20:20:23;12.80;;;5.67;;
42886;SDS011;29032;56.028;92.904;2022-12-07T20:25:26;14.13;;;5.00;;
42886;SDS011;29032;56.028;92.904;2022-12-07T20:30:29;12.23;;;5.27;;
42886;SDS011;29032;56.028;92.904;2022-12-07T20:35:31;13.20;;;4.30;;
42886;SDS011;29032;56.028;92.904;2022-12-07T20:40:34;10.50;;;4.10;;
42886;SDS011;29032;56.028;92.904;2022-12-07T20:45:42;8.70;;;3.93;;
42886;SDS011;29032;56.028;92.904;2022-12-07T20:50:44;9.20;;;4.43;;
42886;SDS011;29032;56.028;92.904;2022-12-07T20:55:48;10.03;;;4.40;;
42886;SDS011;29032;56.028;92.904;2022-12-07T21:00:50;11.63;;;4.60;;
42886;SDS011;29032;56.028;92.904;2022-12-07T21:05:52;8.50;;;4.17;;
42886;SDS011;29032;56.028;92.904;2022-12-07T21:10:56;10.27;;;4.67;;
42886;SDS011;29032;56.028;92.904;2022-12-07T21:15:58;10.50;;;4.20;;
42886;SDS011;29032;56.028;92.904;2022-12-07T21:21:00;7.73;;;3.93;;
42886;SDS011;29032;56.028;92.904;2022-12-07T21:26:09;9.23;;;4.30;;
42886;SDS011;29032;56.028;92.904;2022-12-07T21:31:11;11.73;;;4.13;;
42886;SDS011;29032;56.028;92.904;2022-12-07T21:36:14;10.73;;;4.13;;
42886;SDS011;29032;56.028;92.904;2022-12-07T21:41:20;11.67;;;4.20;;
42886;SDS011;29032;56.028;92.904;2022-12-07T21:46:24;9.77;;;4.03;;
42886;SDS011;29032;56.028;92.904;2022-12-07T21:51:28;8.83;;;4.30;;
42886;SDS011;29032;56.028;92.904;2022-12-07T21:56:33;9.13;;;4.03;;
42886;SDS011;29032;56.028;92.904;2022-12-07T22:01:36;11.47;;;4.83;;
42886;SDS011;29032;56.028;92.904;2022-12-07T22:06:39;10.47;;;4.83;;
42886;SDS011;29032;56.028;92.904;2022-12-07T22:11:42;13.60;;;5.40;;
42886;SDS011;29032;56.028;92.904;2022-12-07T22:16:45;7.60;;;4.00;;
42886;SDS011;29032;56.028;92.904;2022-12-07T22:21:47;11.57;;;4.43;;
42886;SDS011;29032;56.028;92.904;2022-12-07T22:26:50;11.97;;;4.67;;
42886;SDS011;29032;56.028;92.904;2022-12-07T22:31:53;12.63;;;5.10;;
42886;SDS011;29032;56.028;92.904;2022-12-07T22:36:55;14.43;;;4.30;;
42886;SDS011;29032;56.028;92.904;2022-12-07T22:41:58;18.57;;;4.53;;
42886;SDS011;29032;56.028;92.904;2022-12-07T22:47:00;8.97;;;4.80;;
42886;SDS011;29032;56.028;92.904;2022-12-07T22:52:02;15.67;;;4.93;;
42886;SDS011;29032;56.028;92.904;2022-12-07T22:57:06;9.93;;;4.40;;
42886;SDS011;29032;56.028;92.904;2022-12-07T23:02:08;7.70;;;3.33;;
42886;SDS011;29032;56.028;92.904;2022-12-07T23:07:10;7.63;;;3.43;;
42886;SDS011;29032;56.028;92.904;2022-12-07T23:12:14;9.93;;;4.40;;
42886;SDS011;29032;56.028;92.904;2022-12-07T23:17:16;11.47;;;4.77;;
42886;SDS011;29032;56.028;92.904;2022-12-07T23:22:18;13.43;;;5.77;;
42886;SDS011;29032;56.028;92.904;2022-12-07T23:27:22;10.20;;;4.60;;
42886;SDS011;29032;56.028;92.904;2022-12-07T23:32:24;9.30;;;4.30;;
42886;SDS011;29032;56.028;92.904;2022-12-07T23:37:26;12.10;;;4.60;;
42886;SDS011;29032;56.028;92.904;2022-12-07T23:42:30;13.97;;;5.63;;
42886;SDS011;29032;56.028;92.904;2022-12-07T23:47:33;10.07;;;4.50;;
42886;SDS011;29032;56.028;92.904;2022-12-07T23:52:43;9.37;;;4.07;;
42886;SDS011;29032;56.028;92.904;2022-12-07T23:57:46;7.30;;;4.00;;
